Time,TemperatureF,DewpointF,PressureIn,WindDirection,WindDirectionDegrees,WindSpeedMPH,WindSpeedGustMPH,Humidity,HourlyPrecipIn,Conditions,Clouds,dailyrainin,SoftwareType,DateUTC
2013-12-14 00:01:00,33.3,32.5,29.89,SSE,162,0.9,0.9,97,0.02,,,0.00,meteobridge,2013-12-14 06:01:00,
2013-12-14 00:06:00,33.1,32.4,29.89,SSE,162,0.0,0.9,97,0.02,,,0.00,meteobridge,2013-12-14 06:06:00,
2013-12-14 00:11:00,32.9,32.2,29.89,SSE,162,0.0,0.9,97,0.02,,,0.00,meteobridge,2013-12-14 06:11:00,
2013-12-14 00:17:00,32.7,32.0,29.89,SSE,162,0.0,0.0,97,0.02,,,0.00,meteobridge,2013-12-14 06:17:00,
2013-12-14 00:22:00,32.7,32.0,29.89,SSE,162,0.0,0.9,97,0.01,,,0.00,meteobridge,2013-12-14 06:22:00,
2013-12-14 00:27:00,32.5,31.8,29.88,SSE,162,0.0,0.9,97,0.01,,,0.00,meteobridge,2013-12-14 06:27:00,
2013-12-14 00:32:00,32.5,31.8,29.88,SSE,162,0.9,0.9,97,0.01,,,0.00,meteobridge,2013-12-14 06:32:00,
2013-12-14 00:38:00,32.5,31.8,29.88,SSE,162,0.0,0.9,97,0.01,,,0.00,meteobridge,2013-12-14 06:38:00,
2013-12-14 00:43:00,32.5,31.8,29.88,SSE,162,0.0,0.9,97,0.00,,,0.00,meteobridge,2013-12-14 06:43:00,
2013-12-14 00:48:00,32.4,31.6,29.88,SSE,162,0.0,0.0,97,0.00,,,0.00,meteobridge,2013-12-14 06:48:00,
2013-12-14 00:53:00,32.4,31.6,29.88,SSE,162,0.0,0.0,97,0.00,,,0.00,meteobridge,2013-12-14 06:53:00,
2013-12-14 00:58:00,32.4,31.6,29.88,SSE,162,0.0,0.9,97,0.00,,,0.00,meteobridge,2013-12-14 06:58:00,
2013-12-14 01:04:00,32.4,31.6,29.88,SSE,162,0.0,0.9,97,0.00,,,0.00,meteobridge,2013-12-14 07:04:00,
2013-12-14 01:09:00,32.4,31.8,29.88,SSE,162,0.0,0.0,98,0.00,,,0.00,meteobridge,2013-12-14 07:09:00,
2013-12-14 01:14:00,32.4,31.8,29.88,SSE,162,0.9,0.9,98,0.00,,,0.00,meteobridge,2013-12-14 07:14:00,
2013-12-14 01:19:00,32.4,31.8,29.87,SSE,162,0.9,2.0,98,0.00,,,0.00,meteobridge,2013-12-14 07:19:00,
2013-12-14 01:24:00,32.4,31.8,29.87,SSE,162,0.0,0.9,98,0.00,,,0.00,meteobridge,2013-12-14 07:24:00,
2013-12-14 01:30:00,32.4,31.8,29.87,SSE,157,0.0,0.9,98,0.00,,,0.00,meteobridge,2013-12-14 07:30:00,
2013-12-14 01:35:00,32.4,31.8,29.87,SSE,157,0.0,0.9,98,0.00,,,0.00,meteobridge,2013-12-14 07:35:00,
2013-12-14 01:40:00,32.4,31.8,29.87,SSE,157,0.0,0.9,98,0.00,,,0.00,meteobridge,2013-12-14 07:40:00,
2013-12-14 01:45:00,32.4,31.8,29.87,SSE,157,0.9,0.9,98,0.00,,,0.00,meteobridge,2013-12-14 07:45:00,
2013-12-14 01:50:00,32.4,31.8,29.87,SSE,157,0.9,0.9,98,0.00,,,0.00,meteobridge,2013-12-14 07:50:00,
2013-12-14 01:56:00,32.4,31.8,29.87,SSE,157,0.0,0.9,98,0.00,,,0.00,meteobridge,2013-12-14 07:56:00,
2013-12-14 02:01:00,32.4,31.8,29.87,SSE,157,0.0,0.9,98,0.00,,,0.00,meteobridge,2013-12-14 08:01:00,
2013-12-14 02:06:00,32.4,31.8,29.87,SSE,157,0.0,0.9,98,0.00,,,0.00,meteobridge,2013-12-14 08:06:00,
2013-12-14 02:11:00,32.4,31.8,29.87,SSE,157,0.0,0.0,98,0.00,,,0.00,meteobridge,2013-12-14 08:11:00,
2013-12-14 02:16:00,32.4,31.8,29.87,SSE,157,0.0,0.9,98,0.00,,,0.00,meteobridge,2013-12-14 08:16:00,
2013-12-14 02:22:00,32.4,31.8,29.87,SSE,157,0.0,0.0,98,0.00,,,0.00,meteobridge,2013-12-14 08:22:00,
2013-12-14 02:27:00,32.4,31.8,29.87,SSE,157,0.0,0.0,98,0.00,,,0.00,meteobridge,2013-12-14 08:27:00,
2013-12-14 02:32:00,32.4,31.8,29.86,SSE,157,0.0,0.0,98,0.00,,,0.00,meteobridge,2013-12-14 08:32:00,
2013-12-14 02:37:00,32.4,31.8,29.86,SSE,157,0.0,0.0,98,0.00,,,0.00,meteobridge,2013-12-14 08:37:00,
2013-12-14 02:43:00,32.4,31.8,29.86,SSE,157,0.0,0.0,98,0.00,,,0.00,meteobridge,2013-12-14 08:43:00,
2013-12-14 02:48:00,32.4,31.8,29.86,SSE,157,0.0,0.0,98,0.00,,,0.00,meteobridge,2013-12-14 08:48:00,
2013-12-14 02:53:00,32.4,31.8,29.86,SSE,157,0.0,0.0,98,0.00,,,0.00,meteobridge,2013-12-14 08:53:00,
2013-12-14 02:58:00,32.4,31.8,29.87,SSE,157,0.0,0.0,98,0.00,,,0.00,meteobridge,2013-12-14 08:58:00,
2013-12-14 03:03:00,32.4,31.8,29.87,SSE,157,0.0,0.0,98,0.00,,,0.00,meteobridge,2013-12-14 09:03:00,
2013-12-14 03:08:00,32.4,31.8,29.87,SSE,157,0.0,0.0,98,0.00,,,0.00,meteobridge,2013-12-14 09:08:00,
2013-12-14 03:14:00,32.4,31.8,29.87,SSE,157,0.0,0.0,98,0.00,,,0.00,meteobridge,2013-12-14 09:14:00,
2013-12-14 03:19:00,32.5,32.0,29.87,SSE,157,0.0,0.0,98,0.00,,,0.00,meteobridge,2013-12-14 09:19:00,
2013-12-14 03:24:00,32.5,32.0,29.87,SSE,157,0.0,0.0,98,0.00,,,0.00,meteobridge,2013-12-14 09:24:00,
2013-12-14 03:29:00,32.5,32.0,29.87,SSE,157,0.0,0.0,98,0.00,,,0.00,meteobridge,2013-12-14 09:29:00,
2013-12-14 03:35:00,32.5,32.0,29.87,SSE,157,0.0,0.0,98,0.00,,,0.00,meteobridge,2013-12-14 09:35:00,
2013-12-14 03:40:00,32.5,32.0,29.87,SSE,157,0.0,0.0,98,0.00,,,0.00,meteobridge,2013-12-14 09:40:00,
2013-12-14 03:45:00,32.4,31.8,29.87,SSE,157,0.0,0.9,98,0.00,,,0.00,meteobridge,2013-12-14 09:45:00,
2013-12-14 03:51:00,32.4,31.8,29.87,SSE,157,0.0,0.0,98,0.01,,,0.01,meteobridge,2013-12-14 09:51:00,
2013-12-14 03:56:00,32.4,31.8,29.87,SSE,157,0.0,0.0,98,0.01,,,0.01,meteobridge,2013-12-14 09:56:00,
2013-12-14 04:01:00,32.4,31.8,29.87,SSE,157,0.0,0.0,98,0.01,,,0.01,meteobridge,2013-12-14 10:01:00,
2013-12-14 04:06:00,32.4,31.8,29.87,SSE,157,0.0,0.9,98,0.01,,,0.01,meteobridge,2013-12-14 10:06:00,
2013-12-14 04:11:00,32.5,32.0,29.87,SSW,202,0.0,0.9,98,0.01,,,0.01,meteobridge,2013-12-14 10:11:00,
2013-12-14 04:17:00,32.5,32.0,29.87,West,281,0.9,0.9,98,0.01,,,0.01,meteobridge,2013-12-14 10:17:00,
2013-12-14 04:22:00,32.5,32.0,29.87,WNW,284,0.0,0.9,98,0.01,,,0.01,meteobridge,2013-12-14 10:22:00,
2013-12-14 04:28:00,32.5,32.0,29.88,WNW,292,0.0,0.9,98,0.01,,,0.01,meteobridge,2013-12-14 10:28:00,
2013-12-14 04:33:00,32.7,32.2,29.88,West,275,0.9,2.0,98,0.01,,,0.01,meteobridge,2013-12-14 10:33:00,
2013-12-14 04:38:00,32.7,32.2,29.88,WNW,287,0.0,0.9,98,0.01,,,0.01,meteobridge,2013-12-14 10:38:00,
2013-12-14 04:43:00,32.9,32.4,29.88,WNW,286,0.9,2.9,98,0.01,,,0.01,meteobridge,2013-12-14 10:43:00,
2013-12-14 04:48:00,33.1,32.5,29.87,NNW,332,2.9,4.0,98,0.00,,,0.01,meteobridge,2013-12-14 10:48:00,
2013-12-14 04:54:00,33.1,32.5,29.87,NNW,332,2.0,2.0,98,0.00,,,0.01,meteobridge,2013-12-14 10:54:00,
2013-12-14 04:59:00,33.1,32.5,29.88,NNW,336,2.0,4.0,98,0.00,,,0.01,meteobridge,2013-12-14 10:59:00,
2013-12-14 05:04:00,33.3,32.7,29.88,NW,322,0.9,2.9,98,0.00,,,0.01,meteobridge,2013-12-14 11:04:00,
2013-12-14 05:09:00,33.3,32.7,29.88,NW,315,0.9,2.9,98,0.00,,,0.01,meteobridge,2013-12-14 11:09:00,
2013-12-14 05:14:00,33.3,32.7,29.88,NNW,344,0.9,2.0,98,0.00,,,0.01,meteobridge,2013-12-14 11:14:00,
2013-12-14 05:19:00,33.4,32.9,29.88,NNW,337,2.9,4.9,98,0.00,,,0.01,meteobridge,2013-12-14 11:19:00,
2013-12-14 05:25:00,33.4,32.9,29.88,NW,315,2.0,4.0,98,0.00,,,0.01,meteobridge,2013-12-14 11:25:00,
2013-12-14 05:30:00,33.4,32.9,29.89,WNW,286,0.9,4.0,98,0.01,,,0.02,meteobridge,2013-12-14 11:30:00,
2013-12-14 05:35:00,33.4,32.9,29.89,NNW,329,4.0,8.9,98,0.01,,,0.02,meteobridge,2013-12-14 11:35:00,
2013-12-14 05:40:00,33.6,33.1,29.90,WNW,298,2.0,6.0,98,0.01,,,0.02,meteobridge,2013-12-14 11:40:00,
2013-12-14 05:45:00,33.6,33.1,29.90,WNW,296,2.9,4.0,98,0.01,,,0.02,meteobridge,2013-12-14 11:45:00,
2013-12-14 05:51:00,34.0,33.4,29.90,NNW,348,8.9,12.1,98,0.01,,,0.02,meteobridge,2013-12-14 11:51:00,
2013-12-14 05:56:00,34.0,33.4,29.90,NNW,338,6.0,8.1,98,0.01,,,0.02,meteobridge,2013-12-14 11:56:00,
2013-12-14 06:01:00,34.2,33.6,29.91,WNW,298,4.9,8.9,98,0.01,,,0.02,meteobridge,2013-12-14 12:01:00,
2013-12-14 06:06:00,34.3,33.8,29.91,NW,325,4.9,8.1,98,0.02,,,0.03,meteobridge,2013-12-14 12:06:00,
2013-12-14 06:11:00,34.3,33.8,29.91,NNW,348,4.0,8.1,98,0.02,,,0.03,meteobridge,2013-12-14 12:11:00,
2013-12-14 06:16:00,34.2,33.4,29.91,North,5,4.0,6.0,97,0.02,,,0.03,meteobridge,2013-12-14 12:16:00,
2013-12-14 06:21:00,34.3,33.6,29.91,North,355,2.9,11.0,97,0.02,,,0.03,meteobridge,2013-12-14 12:21:00,
2013-12-14 06:26:00,34.3,33.6,29.92,NNW,341,4.0,8.1,97,0.03,,,0.04,meteobridge,2013-12-14 12:26:00,
2013-12-14 06:31:00,34.3,33.6,29.92,NNW,346,4.0,6.0,97,0.02,,,0.04,meteobridge,2013-12-14 12:31:00,
2013-12-14 06:37:00,34.2,33.4,29.92,NNW,339,10.1,12.1,97,0.02,,,0.04,meteobridge,2013-12-14 12:37:00,
2013-12-14 06:42:00,34.3,33.3,29.93,NNE,25,6.0,13.0,96,0.02,,,0.04,meteobridge,2013-12-14 12:42:00,
2013-12-14 06:47:00,34.3,33.3,29.93,North,349,4.0,10.1,96,0.02,,,0.04,meteobridge,2013-12-14 12:47:00,
2013-12-14 06:52:00,34.2,33.1,29.93,NNW,337,4.0,12.1,96,0.03,,,0.05,meteobridge,2013-12-14 12:52:00,
2013-12-14 06:57:00,34.2,33.1,29.94,NW,314,8.9,11.0,96,0.03,,,0.05,meteobridge,2013-12-14 12:57:00,
2013-12-14 07:02:00,34.0,32.9,29.95,WNW,299,2.9,15.0,96,0.03,,,0.05,meteobridge,2013-12-14 13:02:00,
2013-12-14 07:07:00,34.0,32.9,29.95,NNW,338,6.0,10.1,96,0.03,,,0.06,meteobridge,2013-12-14 13:07:00,
2013-12-14 07:12:00,34.0,32.7,29.95,NW,317,6.0,12.1,95,0.03,,,0.06,meteobridge,2013-12-14 13:12:00,
2013-12-14 07:18:00,34.0,32.7,29.96,NW,311,4.0,8.1,95,0.03,,,0.06,meteobridge,2013-12-14 13:18:00,
2013-12-14 07:23:00,34.0,32.9,29.96,North,355,4.0,12.1,96,0.02,,,0.06,meteobridge,2013-12-14 13:23:00,
2013-12-14 07:28:00,33.8,32.7,29.96,North,350,8.1,15.0,96,0.02,,,0.06,meteobridge,2013-12-14 13:28:00,
2013-12-14 07:33:00,33.8,32.7,29.96,NNW,330,8.1,15.0,96,0.02,,,0.06,meteobridge,2013-12-14 13:33:00,
2013-12-14 07:38:00,33.6,32.5,29.97,North,9,4.0,11.0,96,0.03,,,0.07,meteobridge,2013-12-14 13:38:00,
2013-12-14 07:43:00,33.6,32.5,29.98,NW,316,2.9,11.0,96,0.03,,,0.07,meteobridge,2013-12-14 13:43:00,
2013-12-14 07:48:00,33.6,32.5,29.99,NNW,331,4.0,12.1,96,0.02,,,0.07,meteobridge,2013-12-14 13:48:00,
2013-12-14 07:53:00,33.4,32.4,29.99,NNE,33,4.0,13.0,96,0.02,,,0.07,meteobridge,2013-12-14 13:53:00,
2013-12-14 07:59:00,33.4,32.4,30.00,NW,322,2.9,10.1,96,0.02,,,0.07,meteobridge,2013-12-14 13:59:00,
2013-12-14 08:04:00,33.4,32.4,30.00,NW,325,6.0,14.1,96,0.02,,,0.08,meteobridge,2013-12-14 14:04:00,
2013-12-14 08:09:00,33.3,32.2,29.99,NNW,344,10.1,15.0,96,0.02,,,0.08,meteobridge,2013-12-14 14:09:00,
2013-12-14 08:14:00,33.3,32.2,30.00,NNW,342,2.9,10.1,96,0.02,,,0.08,meteobridge,2013-12-14 14:14:00,
2013-12-14 08:19:00,33.3,32.2,30.01,NW,320,4.0,8.9,96,0.02,,,0.08,meteobridge,2013-12-14 14:19:00,
2013-12-14 08:24:00,33.3,32.2,30.01,NNW,328,2.9,4.0,96,0.02,,,0.08,meteobridge,2013-12-14 14:24:00,
2013-12-14 08:29:00,33.1,32.0,30.01,North,350,4.0,8.1,96,0.02,,,0.08,meteobridge,2013-12-14 14:29:00,
2013-12-14 08:35:00,33.1,32.0,30.02,NNW,333,2.9,8.1,96,0.02,,,0.08,meteobridge,2013-12-14 14:35:00,
2013-12-14 08:40:00,32.9,32.2,30.02,NNW,328,2.9,4.9,97,0.01,,,0.08,meteobridge,2013-12-14 14:40:00,
2013-12-14 08:45:00,32.9,32.2,30.02,NW,315,4.9,10.1,97,0.01,,,0.08,meteobridge,2013-12-14 14:45:00,
2013-12-14 08:50:00,32.7,32.0,30.03,NNW,329,8.9,12.1,97,0.01,,,0.08,meteobridge,2013-12-14 14:50:00,
2013-12-14 08:55:00,32.7,32.0,30.03,NNW,340,4.9,8.1,97,0.01,,,0.08,meteobridge,2013-12-14 14:55:00,
2013-12-14 09:00:00,32.9,32.2,30.03,NNW,336,12.1,13.0,97,0.02,,,0.09,meteobridge,2013-12-14 15:00:00,
2013-12-14 09:05:00,32.9,31.8,30.03,North,355,8.9,10.1,96,0.01,,,0.09,meteobridge,2013-12-14 15:05:00,
2013-12-14 09:10:00,32.7,31.6,30.03,North,10,2.9,10.1,96,0.01,,,0.09,meteobridge,2013-12-14 15:10:00,
2013-12-14 09:15:00,32.5,31.5,30.03,NNE,19,6.9,13.0,96,0.01,,,0.09,meteobridge,2013-12-14 15:15:00,
2013-12-14 09:21:00,32.4,31.3,30.04,NE,40,4.0,8.9,96,0.02,,,0.10,meteobridge,2013-12-14 15:21:00,
2013-12-14 09:26:00,32.4,31.3,30.04,NW,319,14.1,14.1,96,0.02,,,0.10,meteobridge,2013-12-14 15:26:00,
2013-12-14 09:31:00,32.4,31.3,30.04,NW,323,8.9,12.1,96,0.02,,,0.10,meteobridge,2013-12-14 15:31:00,
2013-12-14 09:36:00,32.4,31.1,30.03,NNE,24,2.9,12.1,95,0.02,,,0.10,meteobridge,2013-12-14 15:36:00,
2013-12-14 09:41:00,32.2,30.9,30.04,NW,322,8.9,13.0,95,0.02,,,0.10,meteobridge,2013-12-14 15:41:00,
2013-12-14 09:46:00,32.0,30.9,30.04,NW,325,4.9,13.0,96,0.02,,,0.10,meteobridge,2013-12-14 15:46:00,
2013-12-14 09:51:00,31.8,30.6,30.04,NNE,20,4.9,13.0,95,0.02,,,0.10,meteobridge,2013-12-14 15:51:00,
2013-12-14 09:56:00,31.6,30.4,30.04,NW,315,8.1,19.9,95,0.02,,,0.10,meteobridge,2013-12-14 15:56:00,
2013-12-14 10:01:00,31.5,30.2,30.04,NW,325,11.0,17.0,95,0.01,,,0.10,meteobridge,2013-12-14 16:01:00,
2013-12-14 10:06:00,31.3,30.0,30.05,NW,304,10.1,19.0,95,0.01,,,0.10,meteobridge,2013-12-14 16:06:00,
2013-12-14 10:12:00,31.3,30.0,30.05,NNW,342,6.0,15.0,95,0.01,,,0.10,meteobridge,2013-12-14 16:12:00,
2013-12-14 10:17:00,31.1,29.8,30.06,North,355,4.0,13.0,95,0.00,,,0.10,meteobridge,2013-12-14 16:17:00,
2013-12-14 10:22:00,30.9,29.7,30.06,North,11,11.0,21.0,95,0.00,,,0.10,meteobridge,2013-12-14 16:22:00,
2013-12-14 10:27:00,30.7,29.3,30.06,NNW,335,13.0,23.0,94,0.00,,,0.10,meteobridge,2013-12-14 16:27:00,
2013-12-14 10:32:00,30.7,29.5,30.06,WNW,298,6.9,14.1,95,0.00,,,0.10,meteobridge,2013-12-14 16:32:00,
2013-12-14 10:37:00,30.7,29.5,30.06,NNW,333,8.9,15.0,95,0.00,,,0.10,meteobridge,2013-12-14 16:37:00,
2013-12-14 10:42:00,30.7,29.3,30.06,NNW,341,8.9,17.9,94,0.00,,,0.10,meteobridge,2013-12-14 16:42:00,
2013-12-14 10:47:00,30.7,29.3,30.06,NNE,15,4.0,13.0,94,0.00,,,0.10,meteobridge,2013-12-14 16:47:00,
2013-12-14 10:52:00,30.7,29.3,30.06,NNW,327,10.1,19.0,94,0.00,,,0.10,meteobridge,2013-12-14 16:52:00,
2013-12-14 10:58:00,30.7,29.3,30.05,NW,322,13.0,16.1,94,0.00,,,0.10,meteobridge,2013-12-14 16:58:00,
2013-12-14 11:03:00,30.7,29.3,30.05,NNW,328,12.1,13.0,94,0.00,,,0.10,meteobridge,2013-12-14 17:03:00,
2013-12-14 11:08:00,30.6,29.1,30.05,NNW,333,10.1,21.9,94,0.00,,,0.10,meteobridge,2013-12-14 17:08:00,
2013-12-14 11:13:00,30.4,28.9,30.05,NNW,331,8.1,16.1,94,0.00,,,0.10,meteobridge,2013-12-14 17:13:00,
2013-12-14 11:18:00,30.6,29.3,30.05,NNW,336,8.9,14.1,95,0.00,,,0.10,meteobridge,2013-12-14 17:18:00,
2013-12-14 11:23:00,30.6,29.1,30.05,North,5,10.1,17.9,94,0.00,,,0.10,meteobridge,2013-12-14 17:23:00,
2013-12-14 11:28:00,30.4,28.9,30.05,North,0,10.1,17.9,94,0.00,,,0.10,meteobridge,2013-12-14 17:28:00,
2013-12-14 11:33:00,30.4,28.9,30.05,NW,312,10.1,13.0,94,0.00,,,0.10,meteobridge,2013-12-14 17:33:00,
2013-12-14 11:39:00,30.4,28.9,30.05,NNW,329,4.9,11.0,94,0.00,,,0.10,meteobridge,2013-12-14 17:39:00,
2013-12-14 11:44:00,30.4,28.9,30.06,NNW,344,8.9,12.1,94,0.00,,,0.10,meteobridge,2013-12-14 17:44:00,
2013-12-14 11:49:00,30.4,28.9,30.06,NW,323,6.0,17.0,94,0.00,,,0.10,meteobridge,2013-12-14 17:49:00,
2013-12-14 11:54:00,30.0,28.6,30.06,NW,315,8.1,10.1,94,0.00,,,0.10,meteobridge,2013-12-14 17:54:00,
2013-12-14 11:59:00,30.0,28.2,30.06,North,0,8.1,14.1,93,0.00,,,0.10,meteobridge,2013-12-14 17:59:00,
2013-12-14 12:04:00,30.0,28.6,30.06,North,355,8.1,11.0,94,0.00,,,0.10,meteobridge,2013-12-14 18:04:00,
2013-12-14 12:09:00,30.0,28.2,30.07,NNW,337,6.0,17.9,93,0.00,,,0.10,meteobridge,2013-12-14 18:09:00,
2013-12-14 12:14:00,30.0,28.2,30.07,North,355,6.0,15.0,93,0.00,,,0.10,meteobridge,2013-12-14 18:14:00,
2013-12-14 12:19:00,30.0,28.2,30.07,NNW,342,8.1,13.0,93,0.00,,,0.10,meteobridge,2013-12-14 18:19:00,
2013-12-14 12:24:00,29.8,28.0,30.07,North,5,6.0,11.0,93,0.00,,,0.10,meteobridge,2013-12-14 18:24:00,
2013-12-14 12:30:00,29.8,28.0,30.07,NNW,332,11.0,17.0,93,0.00,,,0.10,meteobridge,2013-12-14 18:30:00,
2013-12-14 12:35:00,29.8,28.0,30.07,North,355,4.9,14.1,93,0.00,,,0.10,meteobridge,2013-12-14 18:35:00,
2013-12-14 12:40:00,29.7,28.2,30.07,NNW,348,8.9,17.0,94,0.00,,,0.10,meteobridge,2013-12-14 18:40:00,
2013-12-14 12:45:00,29.7,28.2,30.07,NNW,335,8.1,13.0,94,0.00,,,0.10,meteobridge,2013-12-14 18:45:00,
2013-12-14 12:51:00,29.7,27.9,30.08,NNW,337,8.1,11.0,93,0.00,,,0.10,meteobridge,2013-12-14 18:51:00,
2013-12-14 13:00:00,29.7,27.9,30.08,NNW,340,11.0,11.0,93,0.00,,,0.10,meteobridge,2013-12-14 19:00:00,
2013-12-14 13:06:00,29.7,27.7,30.08,NNW,328,4.9,19.0,92,0.00,,,0.10,meteobridge,2013-12-14 19:06:00,
2013-12-14 13:11:00,29.7,27.9,30.08,NW,317,8.1,13.0,93,0.00,,,0.10,meteobridge,2013-12-14 19:11:00,
2013-12-14 13:16:00,29.8,28.0,30.08,SW,235,6.0,8.9,93,0.00,,,0.10,meteobridge,2013-12-14 19:16:00,
2013-12-14 13:21:00,29.8,28.0,30.08,WNW,298,12.1,15.0,93,0.00,,,0.10,meteobridge,2013-12-14 19:21:00,
2013-12-14 13:26:00,29.8,27.9,30.09,NNW,331,4.9,14.1,92,0.00,,,0.10,meteobridge,2013-12-14 19:26:00,
2013-12-14 13:31:00,29.8,27.9,30.09,NW,317,4.0,11.0,92,0.00,,,0.10,meteobridge,2013-12-14 19:31:00,
2013-12-14 13:36:00,29.8,27.5,30.09,WNW,292,6.9,12.1,91,0.00,,,0.10,meteobridge,2013-12-14 19:36:00,
2013-12-14 13:42:00,29.8,27.9,30.09,NNW,329,10.1,12.1,92,0.00,,,0.10,meteobridge,2013-12-14 19:42:00,
2013-12-14 13:47:00,29.8,27.5,30.09,North,350,2.9,13.0,91,0.00,,,0.10,meteobridge,2013-12-14 19:47:00,
2013-12-14 13:52:00,29.8,27.5,30.10,NNW,341,2.9,13.0,91,0.00,,,0.10,meteobridge,2013-12-14 19:52:00,
2013-12-14 13:57:00,29.8,27.9,30.10,WNW,299,12.1,12.1,92,0.00,,,0.10,meteobridge,2013-12-14 19:57:00,
2013-12-14 14:02:00,29.8,27.9,30.11,NNW,338,4.0,6.9,92,0.00,,,0.10,meteobridge,2013-12-14 20:02:00,
2013-12-14 14:07:00,29.8,27.5,30.11,NW,321,14.1,14.1,91,0.00,,,0.10,meteobridge,2013-12-14 20:07:00,
2013-12-14 14:12:00,29.8,27.5,30.11,NNW,335,4.9,11.0,91,0.00,,,0.10,meteobridge,2013-12-14 20:12:00,
2013-12-14 14:17:00,29.8,27.5,30.11,WNW,300,11.0,13.0,91,0.00,,,0.10,meteobridge,2013-12-14 20:17:00,
2013-12-14 14:22:00,29.8,27.5,30.11,WNW,302,14.1,17.0,91,0.00,,,0.10,meteobridge,2013-12-14 20:22:00,
2013-12-14 14:28:00,29.7,27.3,30.11,NW,312,8.1,13.0,91,0.00,,,0.10,meteobridge,2013-12-14 20:28:00,
2013-12-14 14:34:00,29.7,27.3,30.12,NW,311,4.9,14.1,91,0.00,,,0.10,meteobridge,2013-12-14 20:34:00,
2013-12-14 14:39:00,29.7,27.3,30.12,NW,321,6.0,11.0,91,0.00,,,0.10,meteobridge,2013-12-14 20:39:00,
2013-12-14 14:44:00,29.5,27.1,30.12,NNW,329,8.1,11.0,91,0.00,,,0.10,meteobridge,2013-12-14 20:44:00,
2013-12-14 14:49:00,29.5,27.1,30.12,NNW,340,6.0,10.1,91,0.00,,,0.10,meteobridge,2013-12-14 20:49:00,
2013-12-14 14:54:00,29.5,27.1,30.12,NNW,342,4.9,13.0,91,0.00,,,0.10,meteobridge,2013-12-14 20:54:00,
2013-12-14 14:59:00,29.5,27.1,30.12,NNW,331,4.9,14.1,91,0.00,,,0.10,meteobridge,2013-12-14 20:59:00,
2013-12-14 15:04:00,29.5,27.1,30.13,NNW,346,6.0,8.1,91,0.00,,,0.10,meteobridge,2013-12-14 21:04:00,
2013-12-14 15:09:00,29.5,27.1,30.13,WNW,297,6.9,12.1,91,0.00,,,0.10,meteobridge,2013-12-14 21:09:00,
2013-12-14 15:14:00,29.3,27.3,30.14,North,0,4.0,8.1,92,0.00,,,0.10,meteobridge,2013-12-14 21:14:00,
2013-12-14 15:20:00,29.3,27.3,30.14,NW,325,6.0,8.9,92,0.00,,,0.10,meteobridge,2013-12-14 21:20:00,
2013-12-14 15:25:00,29.1,27.1,30.14,NNW,340,4.0,11.0,92,0.00,,,0.10,meteobridge,2013-12-14 21:25:00,
2013-12-14 15:30:00,29.1,26.8,30.14,NW,325,4.9,8.1,91,0.00,,,0.10,meteobridge,2013-12-14 21:30:00,
2013-12-14 15:35:00,29.1,27.1,30.14,WNW,300,2.9,11.0,92,0.00,,,0.10,meteobridge,2013-12-14 21:35:00,
2013-12-14 15:40:00,29.1,26.8,30.15,WNW,284,6.0,10.1,91,0.00,,,0.10,meteobridge,2013-12-14 21:40:00,
2013-12-14 15:45:00,28.9,26.6,30.15,NNE,14,8.1,8.9,91,0.00,,,0.10,meteobridge,2013-12-14 21:45:00,
2013-12-14 15:50:00,28.9,26.6,30.16,North,355,4.0,8.9,91,0.00,,,0.10,meteobridge,2013-12-14 21:50:00,
2013-12-14 15:55:00,28.9,26.6,30.16,NW,317,8.9,12.1,91,0.00,,,0.10,meteobridge,2013-12-14 21:55:00,
2013-12-14 16:01:00,28.9,26.6,30.16,NW,322,8.1,8.9,91,0.00,,,0.10,meteobridge,2013-12-14 22:01:00,
2013-12-14 16:06:00,28.9,26.6,30.16,NW,311,6.0,12.1,91,0.00,,,0.10,meteobridge,2013-12-14 22:06:00,
2013-12-14 16:11:00,28.9,26.6,30.17,NNW,328,4.0,10.1,91,0.00,,,0.10,meteobridge,2013-12-14 22:11:00,
2013-12-14 16:16:00,28.8,26.4,30.17,NNW,333,4.9,8.1,91,0.00,,,0.10,meteobridge,2013-12-14 22:16:00,
2013-12-14 16:21:00,28.8,26.4,30.17,NW,320,8.9,11.0,91,0.00,,,0.10,meteobridge,2013-12-14 22:21:00,
2013-12-14 16:26:00,28.8,26.2,30.17,NNW,331,2.9,8.9,90,0.00,,,0.10,meteobridge,2013-12-14 22:26:00,
2013-12-14 16:31:00,28.8,26.4,30.17,NNW,341,4.9,11.0,91,0.00,,,0.10,meteobridge,2013-12-14 22:31:00,
2013-12-14 16:36:00,28.8,26.4,30.17,North,350,4.9,14.1,91,0.00,,,0.10,meteobridge,2013-12-14 22:36:00,
2013-12-14 16:41:00,28.8,26.4,30.18,WNW,291,4.0,10.1,91,0.00,,,0.10,meteobridge,2013-12-14 22:41:00,
2013-12-14 16:47:00,28.6,26.2,30.18,NNW,337,4.9,4.9,91,0.00,,,0.10,meteobridge,2013-12-14 22:47:00,
2013-12-14 16:52:00,28.6,26.2,30.18,NNW,340,4.9,12.1,91,0.00,,,0.10,meteobridge,2013-12-14 22:52:00,
2013-12-14 16:57:00,28.6,26.2,30.19,North,350,2.9,8.1,91,0.00,,,0.10,meteobridge,2013-12-14 22:57:00,
2013-12-14 17:02:00,28.6,26.1,30.19,NNW,340,10.1,11.0,90,0.00,,,0.10,meteobridge,2013-12-14 23:02:00,
2013-12-14 17:07:00,28.6,26.1,30.19,NNW,331,4.9,10.1,90,0.00,,,0.10,meteobridge,2013-12-14 23:07:00,
2013-12-14 17:12:00,28.4,25.9,30.19,NW,319,8.1,10.1,90,0.00,,,0.10,meteobridge,2013-12-14 23:12:00,
2013-12-14 17:17:00,28.4,25.9,30.19,NNW,333,13.0,14.1,90,0.00,,,0.10,meteobridge,2013-12-14 23:17:00,
2013-12-14 17:23:00,28.2,25.7,30.20,NNW,330,6.0,12.1,90,0.00,,,0.10,meteobridge,2013-12-14 23:23:00,
2013-12-14 17:28:00,28.4,25.9,30.20,NW,306,8.1,8.9,90,0.00,,,0.10,meteobridge,2013-12-14 23:28:00,
2013-12-14 17:33:00,28.4,25.9,30.20,NW,317,8.1,8.9,90,0.00,,,0.10,meteobridge,2013-12-14 23:33:00,
2013-12-14 17:38:00,28.4,25.9,30.20,NNW,338,12.1,12.1,90,0.00,,,0.10,meteobridge,2013-12-14 23:38:00,
2013-12-14 17:43:00,28.4,25.9,30.21,NNW,335,2.9,8.9,90,0.00,,,0.10,meteobridge,2013-12-14 23:43:00,
2013-12-14 17:48:00,28.4,25.9,30.21,NNW,333,8.9,8.9,90,0.00,,,0.10,meteobridge,2013-12-14 23:48:00,
2013-12-14 17:53:00,28.4,25.9,30.21,NW,311,6.0,11.0,90,0.00,,,0.10,meteobridge,2013-12-14 23:53:00,
2013-12-14 17:59:00,28.4,25.9,30.22,NW,321,6.0,8.9,90,0.00,,,0.10,meteobridge,2013-12-14 23:59:00,
2013-12-14 18:04:00,28.4,25.9,30.22,NNW,330,6.0,8.9,90,0.00,,,0.10,meteobridge,2013-12-15 00:04:00,
2013-12-14 18:10:00,28.4,25.9,30.22,WNW,296,8.1,10.1,90,0.00,,,0.10,meteobridge,2013-12-15 00:10:00,
2013-12-14 18:15:00,28.4,25.9,30.22,NNW,333,4.9,4.9,90,0.00,,,0.10,meteobridge,2013-12-15 00:15:00,
2013-12-14 18:20:00,28.6,25.7,30.22,NNW,328,2.9,6.0,89,0.00,,,0.10,meteobridge,2013-12-15 00:20:00,
2013-12-14 18:25:00,28.6,26.1,30.22,NNW,331,0.9,8.1,90,0.00,,,0.10,meteobridge,2013-12-15 00:25:00,
2013-12-14 18:30:00,28.6,25.7,30.22,NW,313,2.0,8.1,89,0.00,,,0.10,meteobridge,2013-12-15 00:30:00,
2013-12-14 18:35:00,28.6,25.7,30.22,NW,311,2.0,8.9,89,0.00,,,0.10,meteobridge,2013-12-15 00:35:00,
2013-12-14 18:41:00,28.6,25.7,30.22,WSW,254,2.0,8.1,89,0.00,,,0.10,meteobridge,2013-12-15 00:41:00,
2013-12-14 18:46:00,28.6,25.5,30.22,North,355,2.0,11.0,88,0.00,,,0.10,meteobridge,2013-12-15 00:46:00,
2013-12-14 18:51:00,28.6,25.5,30.22,NNW,341,6.0,12.1,88,0.00,,,0.10,meteobridge,2013-12-15 00:51:00,
2013-12-14 18:56:00,28.6,25.2,30.23,NNW,342,11.0,11.0,87,0.00,,,0.10,meteobridge,2013-12-15 00:56:00,
2013-12-14 19:01:00,28.6,25.2,30.23,WNW,297,2.9,11.0,87,0.00,,,0.10,meteobridge,2013-12-15 01:01:00,
2013-12-14 19:06:00,28.4,25.3,30.23,NNW,329,2.9,4.0,88,0.00,,,0.10,meteobridge,2013-12-15 01:06:00,
2013-12-14 19:12:00,28.4,25.5,30.23,WNW,297,0.9,6.0,89,0.00,,,0.10,meteobridge,2013-12-15 01:12:00,
2013-12-14 19:17:00,28.4,25.3,30.23,NNW,328,4.0,12.1,88,0.00,,,0.10,meteobridge,2013-12-15 01:17:00,
2013-12-14 19:22:00,28.4,25.5,30.24,NW,307,2.0,4.9,89,0.00,,,0.10,meteobridge,2013-12-15 01:22:00,
2013-12-14 19:27:00,28.2,25.3,30.23,NNW,327,2.9,10.1,89,0.00,,,0.10,meteobridge,2013-12-15 01:27:00,
2013-12-14 19:32:00,28.2,25.3,30.23,NW,308,4.9,11.0,89,0.00,,,0.10,meteobridge,2013-12-15 01:32:00,
2013-12-14 19:37:00,28.2,25.3,30.23,NNW,328,2.9,6.0,89,0.00,,,0.10,meteobridge,2013-12-15 01:37:00,
2013-12-14 19:43:00,28.2,25.3,30.23,NNW,337,2.0,6.0,89,0.00,,,0.10,meteobridge,2013-12-15 01:43:00,
2013-12-14 19:48:00,28.2,25.7,30.23,WNW,287,2.0,8.1,90,0.00,,,0.10,meteobridge,2013-12-15 01:48:00,
2013-12-14 19:53:00,28.2,25.3,30.23,NW,312,2.9,10.1,89,0.00,,,0.10,meteobridge,2013-12-15 01:53:00,
2013-12-14 19:58:00,28.0,25.2,30.24,NNW,348,2.9,8.9,89,0.00,,,0.10,meteobridge,2013-12-15 01:58:00,
2013-12-14 20:03:00,28.0,25.2,30.24,NNW,341,4.9,8.1,89,0.00,,,0.10,meteobridge,2013-12-15 02:03:00,
2013-12-14 20:08:00,28.0,25.0,30.24,NNW,341,6.0,10.1,88,0.00,,,0.10,meteobridge,2013-12-15 02:08:00,
2013-12-14 20:14:00,28.0,25.2,30.24,WNW,302,4.9,6.0,89,0.00,,,0.10,meteobridge,2013-12-15 02:14:00,
2013-12-14 20:19:00,28.0,25.2,30.24,NNW,337,4.0,6.0,89,0.00,,,0.10,meteobridge,2013-12-15 02:19:00,
2013-12-14 20:24:00,28.0,25.2,30.24,WNW,292,4.9,8.1,89,0.00,,,0.10,meteobridge,2013-12-15 02:24:00,
2013-12-14 20:29:00,27.9,25.0,30.24,NNW,342,4.9,8.9,89,0.00,,,0.10,meteobridge,2013-12-15 02:29:00,
2013-12-14 20:34:00,27.9,25.3,30.24,NW,305,4.0,6.9,90,0.00,,,0.10,meteobridge,2013-12-15 02:34:00,
2013-12-14 20:39:00,27.7,24.8,30.24,NNW,329,6.0,6.0,89,0.00,,,0.10,meteobridge,2013-12-15 02:39:00,
2013-12-14 20:45:00,27.7,24.8,30.24,North,355,8.1,8.1,89,0.00,,,0.10,meteobridge,2013-12-15 02:45:00,
2013-12-14 20:50:00,27.7,24.8,30.24,NW,304,2.0,4.9,89,0.00,,,0.10,meteobridge,2013-12-15 02:50:00,
2013-12-14 20:55:00,27.7,24.8,30.24,NNW,331,2.9,12.1,89,0.00,,,0.10,meteobridge,2013-12-15 02:55:00,
2013-12-14 21:00:00,27.7,24.6,30.24,North,350,2.9,10.1,88,0.00,,,0.10,meteobridge,2013-12-15 03:00:00,
2013-12-14 21:05:00,27.5,24.6,30.24,NW,315,2.9,8.9,89,0.00,,,0.10,meteobridge,2013-12-15 03:05:00,
2013-12-14 21:10:00,27.5,24.6,30.24,NW,313,2.9,4.9,89,0.00,,,0.10,meteobridge,2013-12-15 03:10:00,
2013-12-14 21:16:00,27.5,24.6,30.24,NW,317,2.9,4.9,89,0.00,,,0.10,meteobridge,2013-12-15 03:16:00,
2013-12-14 21:21:00,27.5,24.6,30.24,West,265,2.0,4.9,89,0.00,,,0.10,meteobridge,2013-12-15 03:21:00,
2013-12-14 21:26:00,27.5,24.6,30.24,West,281,4.0,8.9,89,0.00,,,0.10,meteobridge,2013-12-15 03:26:00,
2013-12-14 21:31:00,27.5,24.6,30.25,NW,317,2.9,8.1,89,0.00,,,0.10,meteobridge,2013-12-15 03:31:00,
2013-12-14 21:36:00,27.5,24.6,30.25,North,5,4.9,6.9,89,0.00,,,0.10,meteobridge,2013-12-15 03:36:00,
2013-12-14 21:41:00,27.5,24.6,30.25,NNW,327,6.0,8.9,89,0.00,,,0.10,meteobridge,2013-12-15 03:41:00,
2013-12-14 21:46:00,27.5,24.6,30.26,NW,315,4.0,11.0,89,0.00,,,0.10,meteobridge,2013-12-15 03:46:00,
2013-12-14 21:51:00,27.3,24.4,30.25,NW,314,2.0,10.1,89,0.00,,,0.10,meteobridge,2013-12-15 03:51:00,
2013-12-14 21:56:00,27.3,24.3,30.25,NW,319,4.0,8.9,88,0.00,,,0.10,meteobridge,2013-12-15 03:56:00,
2013-12-14 22:02:00,27.3,24.3,30.24,NW,317,4.9,12.1,88,0.00,,,0.10,meteobridge,2013-12-15 04:02:00,
2013-12-14 22:07:00,27.3,24.3,30.24,NW,313,4.0,6.0,88,0.00,,,0.10,meteobridge,2013-12-15 04:07:00,
2013-12-14 22:12:00,27.1,23.7,30.24,WNW,300,2.0,4.9,87,0.00,,,0.10,meteobridge,2013-12-15 04:12:00,
2013-12-14 22:17:00,27.1,23.7,30.24,NNW,329,2.0,4.0,87,0.00,,,0.10,meteobridge,2013-12-15 04:17:00,
2013-12-14 22:22:00,27.1,24.1,30.25,NNW,342,2.9,6.9,88,0.00,,,0.10,meteobridge,2013-12-15 04:22:00,
2013-12-14 22:28:00,27.1,24.1,30.25,NW,316,6.0,6.0,88,0.00,,,0.10,meteobridge,2013-12-15 04:28:00,
2013-12-14 22:33:00,27.0,23.9,30.25,NNW,332,2.0,4.0,88,0.00,,,0.10,meteobridge,2013-12-15 04:33:00,
2013-12-14 22:38:00,27.0,23.5,30.25,NNW,329,4.9,4.9,87,0.00,,,0.10,meteobridge,2013-12-15 04:38:00,
2013-12-14 22:43:00,26.8,23.7,30.25,NW,326,2.9,2.9,88,0.00,,,0.10,meteobridge,2013-12-15 04:43:00,
2013-12-14 22:48:00,26.6,23.5,30.25,NNW,338,4.9,4.9,88,0.00,,,0.10,meteobridge,2013-12-15 04:48:00,
2013-12-14 22:54:00,26.4,23.4,30.26,NW,315,0.9,4.0,88,0.00,,,0.10,meteobridge,2013-12-15 04:54:00,
2013-12-14 22:59:00,26.4,23.4,30.25,WNW,301,0.9,2.9,88,0.00,,,0.10,meteobridge,2013-12-15 04:59:00,
2013-12-14 23:01:00,26.4,23.4,30.25,NNW,342,0.9,2.9,88,0.00,,,0.10,meteobridge,2013-12-15 05:01:00,
2013-12-14 23:02:00,26.2,23.2,30.25,NNW,342,0.9,2.0,88,0.00,,,0.10,meteobridge,2013-12-15 05:02:00,
2013-12-14 23:05:00,26.2,23.2,30.25,NNW,342,0.9,2.0,88,0.00,,,0.10,meteobridge,2013-12-15 05:05:00,
2013-12-14 23:09:00,26.1,23.0,30.25,NNW,342,0.0,0.9,88,0.00,,,0.10,meteobridge,2013-12-15 05:09:00,
2013-12-14 23:10:00,26.1,23.2,30.25,NNW,342,0.0,0.0,89,0.00,,,0.10,meteobridge,2013-12-15 05:10:00,
2013-12-14 23:15:00,25.7,23.0,30.25,NNW,342,0.0,0.0,89,0.00,,,0.10,meteobridge,2013-12-15 05:15:00,
2013-12-14 23:19:00,25.5,22.8,30.25,NNW,342,0.0,0.9,89,0.00,,,0.10,meteobridge,2013-12-15 05:19:00,
2013-12-14 23:24:00,25.2,22.6,30.25,NNW,342,0.0,0.9,90,0.00,,,0.10,meteobridge,2013-12-15 05:24:00,
2013-12-14 23:29:00,24.8,22.5,30.25,NNW,342,0.0,0.9,91,0.00,,,0.10,meteobridge,2013-12-15 05:29:00,
2013-12-14 23:34:00,24.4,22.3,30.25,NNW,342,0.0,2.0,91,0.01,,,0.11,meteobridge,2013-12-15 05:34:00,
2013-12-14 23:40:00,24.3,22.1,30.25,NNW,342,0.0,0.9,91,0.01,,,0.11,meteobridge,2013-12-15 05:40:00,
2013-12-14 23:45:00,23.9,21.9,30.25,NNW,342,0.0,0.9,92,0.01,,,0.11,meteobridge,2013-12-15 05:45:00,
2013-12-14 23:50:00,23.5,21.6,30.25,NNW,342,0.9,0.9,92,0.01,,,0.11,meteobridge,2013-12-15 05:50:00,
2013-12-14 23:56:00,23.5,21.6,30.25,NNW,342,0.0,2.0,92,0.01,,,0.11,meteobridge,2013-12-15 05:56:00,